• Join FlightAware (Why Join?)
  • Login
  • US Flag 
 
05:16PM EST


 

Airport Tracker/Info


-or-


 

Live Flight TrackerFlight Track Log ✈ WEW1540 ✈ 08-May-2013 ✈ CYYN - CYKY

Flight Track Log - Related Links

Times and Time Zones

All times are in EDT time to prevent confusion due to time zone crossing. See the WEW1540 flight status page for this flight to view local times or setup timezone preferences in your user account.

Time Position Orientation Groundspeed Altitude Reporting Facility
EDT Latitude Longitude Course Direction KTS MPH feet Rate Location/Type
09:11AM 50.6855 -108.1513 323° Northwest  Level FlightAware Approximate
09:12AM 50.7162 -108.1880 323° Northwest  Level FlightAware Approximate
09:13AM 50.7469 -108.2247 323° Northwest  Level FlightAware Approximate
09:14AM 50.7776 -108.2614 323° Northwest  Level FlightAware Approximate
09:15AM 50.8083 -108.2982 323° Northwest  Level FlightAware Approximate
09:16AM 50.8390 -108.3350 323° Northwest  Level FlightAware Approximate
09:17AM 50.8697 -108.3719 323° Northwest  Level FlightAware Approximate
09:18AM 50.9003 -108.4088 323° Northwest  Level FlightAware Approximate
09:19AM 50.9310 -108.4458 323° Northwest  Level FlightAware Approximate
09:20AM 50.9616 -108.4828 323° Northwest  Level FlightAware Approximate
09:21AM 50.9922 -108.5199 323° Northwest  Level FlightAware Approximate
09:22AM 51.0229 -108.5571 323° Northwest  Level FlightAware Approximate
09:23AM 51.0535 -108.5942 323° Northwest  Level FlightAware Approximate
09:24AM 51.0840 -108.6314 323° Northwest  Level FlightAware Approximate
09:25AM 51.1146 -108.6687 323° Northwest  Level FlightAware Approximate
09:26AM 51.1452 -108.7060 323° Northwest  Level FlightAware Approximate
09:27AM 51.1757 -108.7434 323° Northwest  Level FlightAware Approximate
09:28AM 51.2063 -108.7808 322° Northwest  Level FlightAware Approximate
09:29AM 51.2368 -108.8183 322° Northwest  Level FlightAware Approximate
09:30AM 51.2673 -108.8558 322° Northwest  Level FlightAware Approximate
09:31AM 51.2978 -108.8934 322° Northwest  Level FlightAware Approximate
09:32AM 51.3259 -108.9350 309° West  Level FlightAware Approximate
09:33AM 51.3499 -108.9831 309° West  Level FlightAware Approximate
09:34AM 51.3805 -109.0205 323° Northwest  Level FlightAware Approximate
09:35AM 51.4112 -109.0579 323° Northwest  Level FlightAware Approximate
09:36AM 51.4418 -109.0953 323° Northwest  Level FlightAware Approximate
09:37AM 51.4724 -109.1328 323° Northwest  Level FlightAware Approximate
09:38AM 51.5000 -109.1667 323° Northwest  Level FlightAware Approximate
09:39AM 51.5175 -109.1808 323° Northwest  Level Estimated
09:40AM 51.5175 -109.1808 323° Northwest  Level Estimated
09:41AM 51.5175 -109.1808 323° Northwest  Level Estimated
09:42AM 51.5175 -109.1808 323° Northwest  Level Estimated
09:43AM 51.5175 -109.1808 323° Northwest  Level Estimated
09:44AM 51.5175 -109.1808 323° Northwest  Level Estimated
09:45AM 51.5175 -109.1808 323° Northwest  Level Estimated
09:46AM 51.5175 -109.1808 323° Northwest  Level Estimated
09:47AM 51.5175 -109.1808 323° Northwest  Level Estimated
09:48AM 51.5175 -109.1808 323° Northwest  Level Estimated
09:49AM 51.5175 -109.1808 323° Northwest  Level Estimated
09:50AM 51.5175 -109.1808 323° Northwest  Level Estimated
09:51AM 51.5175 -109.1808 323° Northwest  Level Estimated
09:52AM 51.5175 -109.1808 323° Northwest  Level Estimated